Weather at Kari Field

Public forecast

Using degrees Fahrenheit for public forecast. Weather courtesy of forecast.io.

Closest aviation weather report (METAR) to Kari Field

Closest report is Olympia Regional Airport, 3.4 nm (6.2 km) W.

2024/07/20 04:54 (retrieved 48 minutes ago)

KOLM 200454Z 00000KT 10SM CLR 22/13 A3014 RMK AO2 SLP204 T02220133

Closest aviation forecast (TAF) to Kari Field

Forecast is more than 6 hours old.

Closest forecast is Gray Army Air Field, 11.8 nm (21.9 km) NE.

2024/07/19 21:09 (retrieved 9 hours ago)

TAF KGRF 192100Z 1921/2103 25009KT 9999 FEW028 QNH3008INS BECMG 2003/2004 27003KT 9999 SKC QNH3010INS BECMG 2013/2014 14003KT 9999 SKC QNH3012INS BECMG 2015/2016 01009KT 9999 SKC QNH2998INS TX31/2000Z TN13/2013Z